Time;durP1;ratioP1;P1;durP2;ratioP2;P2;SDS_P1;SDS_P2;PMS_P1;PMS_P2;Temp;Humidity;BMP_temperature;BMP_pressure;BME280_temperature;BME280_humidity;BME280_pressure;Samples;Min_cycle;Max_cycle;Signal;HPM_P1;HPM_P2
2023/12/05 00:00:21;;;;;;;0.15;0.15;;;;;;;-0.83;100.00;95019.03;5027503;28;20060;-76
2023/12/05 00:03:07;;;;;;;0.20;0.20;;;;;;;-0.80;100.00;95003.63;5023837;28;20055;-77
2023/12/05 00:05:53;;;;;;;0.20;0.20;;;;;;;-0.80;100.00;95019.41;5025323;28;20034;-76
2023/12/05 00:08:39;;;;;;;0.20;0.20;;;;;;;-0.72;100.00;95011.25;5026543;28;20108;-76
2023/12/05 00:11:25;;;;;;;0.20;0.20;;;;;;;-0.79;100.00;95001.81;5026886;28;20076;-77
2023/12/05 00:14:11;;;;;;;0.20;0.20;;;;;;;-0.76;100.00;95011.91;5013960;28;20051;-77
2023/12/05 00:16:56;;;;;;;0.20;0.20;;;;;;;-0.79;100.00;95005.25;5024612;28;20060;-77
2023/12/05 00:19:42;;;;;;;0.20;0.20;;;;;;;-0.74;100.00;95001.97;5024646;28;20045;-76
2023/12/05 00:22:28;;;;;;;0.20;0.20;;;;;;;-0.73;100.00;95011.47;5025366;28;21010;-77
2023/12/05 00:25:14;;;;;;;0.20;0.20;;;;;;;-0.73;100.00;95007.03;5024533;28;20537;-77
2023/12/05 00:28:00;;;;;;;0.13;0.13;;;;;;;-0.72;100.00;95013.88;5023953;28;20037;-77
2023/12/05 00:30:46;;;;;;;0.20;0.20;;;;;;;-0.64;100.00;95007.56;5027090;28;20057;-77
2023/12/05 00:33:32;;;;;;;0.20;0.20;;;;;;;-0.66;100.00;95010.41;5025409;28;20033;-77
2023/12/05 00:36:18;;;;;;;0.20;0.20;;;;;;;-0.68;100.00;95012.44;5025740;28;20718;-77
2023/12/05 00:39:04;;;;;;;0.20;0.20;;;;;;;-0.69;100.00;95008.22;5024068;28;20041;-77
2023/12/05 00:41:50;;;;;;;0.20;0.20;;;;;;;-0.61;100.00;95013.22;5026683;28;20047;-77
2023/12/05 00:44:36;;;;;;;0.25;0.25;;;;;;;-0.59;100.00;95005.09;5013969;28;20033;-78
2023/12/05 00:47:22;;;;;;;0.20;0.20;;;;;;;-0.62;100.00;95010.81;5026206;28;20060;-78
2023/12/05 00:50:08;;;;;;;0.20;0.20;;;;;;;-0.59;100.00;95008.53;5023280;28;20033;-77
2023/12/05 00:52:54;;;;;;;0.17;0.17;;;;;;;-0.64;100.00;95007.56;5023711;28;20057;-76
2023/12/05 00:55:40;;;;;;;0.20;0.20;;;;;;;-0.58;100.00;95019.84;5020431;28;20034;-78
2023/12/05 00:58:26;;;;;;;0.20;0.20;;;;;;;-0.66;100.00;95015.66;5020197;28;20686;-77
2023/12/05 01:01:12;;;;;;;0.20;0.20;;;;;;;-0.68;100.00;95014.28;5027283;28;20037;-77
2023/12/05 01:03:58;;;;;;;0.20;0.20;;;;;;;-0.65;100.00;95011.22;5025636;28;20049;-77
2023/12/05 01:06:44;;;;;;;0.20;0.20;;;;;;;-0.62;100.00;95001.09;5029522;28;20045;-78
2023/12/05 01:09:30;;;;;;;0.30;0.30;;;;;;;-0.64;100.00;95000.47;5028785;28;20051;-78
2023/12/05 01:12:16;;;;;;;0.20;0.20;;;;;;;-0.59;100.00;94984.88;5031067;28;20499;-77
2023/12/05 01:15:02;;;;;;;0.10;0.10;;;;;;;-0.56;100.00;94996.78;5026867;28;20049;-78
2023/12/05 01:17:48;;;;;;;0.20;0.20;;;;;;;-0.59;100.00;94981.47;5027806;28;20036;-78
2023/12/05 01:20:34;;;;;;;0.20;0.20;;;;;;;-0.54;100.00;94978.16;5028828;28;20653;-77
2023/12/05 01:23:20;;;;;;;0.30;0.30;;;;;;;-0.49;100.00;94973.09;5026212;28;20037;-77
2023/12/05 01:26:06;;;;;;;0.20;0.20;;;;;;;-0.60;100.00;94974.59;5028360;28;20041;-77
2023/12/05 01:28:51;;;;;;;0.20;0.20;;;;;;;-0.59;100.00;94973.56;5029156;28;20045;-77
2023/12/05 01:31:37;;;;;;;0.20;0.20;;;;;;;-0.65;100.00;94980.47;5030937;28;20033;-77
2023/12/05 01:34:23;;;;;;;0.20;0.20;;;;;;;-0.65;100.00;94969.97;5016967;28;20084;-77
2023/12/05 01:37:09;;;;;;;0.20;0.20;;;;;;;-0.67;100.00;94971.22;5028281;28;20080;-76
2023/12/05 01:39:55;;;;;;;0.20;0.20;;;;;;;-0.69;100.00;94968.00;5030251;28;20057;-76
2023/12/05 01:42:41;;;;;;;0.20;0.20;;;;;;;-0.77;100.00;94973.53;5028414;28;20041;-75
2023/12/05 01:45:27;;;;;;;0.17;0.17;;;;;;;-0.69;100.00;94973.25;5030578;28;20092;-76
2023/12/05 01:48:13;;;;;;;0.20;0.20;;;;;;;-0.68;100.00;94974.88;5026302;28;20298;-76
2023/12/05 01:51:04;;;;;;;0.15;0.15;;;;;;;-0.63;100.00;94977.63;5027795;28;20041;-76
2023/12/05 01:53:51;;;;;;;;;;;;;;;-0.58;100.00;94975.97;5027099;28;20516;-76
2023/12/05 01:56:37;;;;;;;0.30;0.30;;;;;;;-0.56;100.00;94978.38;5031157;28;19917;-76
2023/12/05 01:59:25;;;;;;;0.17;0.17;;;;;;;-0.53;100.00;94988.50;5026609;28;20060;-76
2023/12/05 02:02:12;;;;;;;0.20;0.20;;;;;;;-0.56;100.00;94979.19;5028350;28;20061;-75
2023/12/05 02:04:58;;;;;;;0.22;0.22;;;;;;;-0.55;100.00;94990.50;5028390;28;20053;-75
2023/12/05 02:07:44;;;;;;;0.20;0.20;;;;;;;-0.54;100.00;94984.25;5026571;28;20049;-75
2023/12/05 02:10:30;;;;;;;0.20;0.20;;;;;;;-0.52;100.00;94982.22;5027969;28;20752;-75
2023/12/05 02:13:16;;;;;;;0.20;0.20;;;;;;;-0.49;100.00;94981.78;5027301;28;20086;-75
2023/12/05 02:16:16;;;;;;;0.20;0.20;;;;;;;-0.51;100.00;94977.75;5028447;28;20037;-76
2023/12/05 02:19:18;;;;;;;0.20;0.20;;;;;;;-0.52;100.00;94978.78;5025515;28;20033;-76
2023/12/05 02:22:11;;;;;;;0.20;0.20;;;;;;;-0.53;100.00;94971.91;5026922;28;20148;-76
2023/12/05 02:25:20;;;;;;;0.20;0.20;;;;;;;-0.49;100.00;94978.34;5026711;28;20091;-77
2023/12/05 02:28:06;;;;;;;0.20;0.20;;;;;;;-0.49;100.00;94970.44;5013184;28;20041;-77
2023/12/05 02:30:52;;;;;;;0.20;0.20;;;;;;;-0.57;100.00;94980.22;5025829;28;20391;-77
2023/12/05 02:33:39;;;;;;;0.50;0.30;;;;;;;-0.50;100.00;94971.47;5027587;28;20037;-76
2023/12/05 02:37:03;;;;;;;0.30;0.30;;;;;;;-0.53;100.00;94967.47;5027152;28;20654;-77
2023/12/05 02:40:05;;;;;;;0.20;0.20;;;;;;;-0.53;100.00;94966.66;5027459;28;20037;-76
2023/12/05 02:42:51;;;;;;;0.20;0.20;;;;;;;-0.51;100.00;94965.41;5024710;28;20068;-76
2023/12/05 02:45:39;;;;;;;0.25;0.25;;;;;;;-0.51;100.00;94970.69;5028805;28;20215;-76
2023/12/05 02:48:26;;;;;;;0.30;0.30;;;;;;;-0.53;100.00;94962.22;5028062;28;20561;-76
2023/12/05 02:51:12;;;;;;;0.30;0.30;;;;;;;-0.52;100.00;94957.75;5027591;28;20045;-76
2023/12/05 02:54:03;;;;;;;0.20;0.20;;;;;;;-0.47;100.00;94969.22;5027599;28;20039;-76
2023/12/05 02:56:49;;;;;;;0.20;0.20;;;;;;;-0.52;100.00;94958.56;5028176;28;20037;-76
2023/12/05 02:59:35;;;;;;;0.20;0.20;;;;;;;-0.49;100.00;94955.50;5025545;28;20030;-76
2023/12/05 03:02:21;;;;;;;0.25;0.25;;;;;;;-0.38;100.00;94956.63;5025109;28;20473;-76
2023/12/05 03:05:07;;;;;;;0.30;0.30;;;;;;;-0.33;100.00;94962.00;5028497;28;20481;-76
2023/12/05 03:07:53;;;;;;;0.20;0.20;;;;;;;-0.38;100.00;94957.44;5026433;28;20037;-76
2023/12/05 03:10:39;;;;;;;0.20;0.20;;;;;;;-0.40;100.00;94959.44;5027218;28;20064;-76
2023/12/05 03:13:25;;;;;;;0.30;0.30;;;;;;;-0.38;100.00;94962.69;5023410;28;20033;-76
2023/12/05 03:16:10;;;;;;;0.20;0.20;;;;;;;-0.39;100.00;94968.13;5027394;28;20604;-76
2023/12/05 03:18:56;;;;;;;0.20;0.20;;;;;;;-0.37;100.00;94961.66;5026412;28;20112;-76
2023/12/05 03:21:42;;;;;;;0.20;0.20;;;;;;;-0.33;100.00;94954.94;5024950;28;20041;-76
2023/12/05 03:24:28;;;;;;;0.30;0.30;;;;;;;-0.34;100.00;94963.84;5027100;28;20052;-75
2023/12/05 03:27:14;;;;;;;0.20;0.20;;;;;;;-0.36;100.00;94963.25;5026451;28;20041;-75
2023/12/05 03:30:00;;;;;;;0.20;0.20;;;;;;;-0.38;100.00;94975.81;5025196;28;20179;-75
2023/12/05 03:32:46;;;;;;;0.30;0.30;;;;;;;-0.35;100.00;94959.59;5006834;28;20041;-75
2023/12/05 03:35:32;;;;;;;0.20;0.20;;;;;;;-0.34;100.00;94961.22;4998755;28;20104;-75
2023/12/05 03:38:17;;;;;;;0.30;0.30;;;;;;;-0.30;100.00;94964.22;5006686;28;20176;-75
2023/12/05 03:41:04;;;;;;;0.20;0.20;;;;;;;-0.29;100.00;94969.25;5007093;28;20202;-75
2023/12/05 03:43:49;;;;;;;0.20;0.20;;;;;;;-0.31;100.00;94966.06;5006021;28;20037;-75
2023/12/05 03:46:35;;;;;;;0.20;0.20;;;;;;;-0.25;100.00;94963.56;5003333;28;20065;-75
2023/12/05 03:49:21;;;;;;;0.30;0.30;;;;;;;-0.29;100.00;94963.19;5005996;28;20051;-75
2023/12/05 03:52:07;;;;;;;0.25;0.25;;;;;;;-0.29;100.00;94979.78;5005943;28;20044;-75
2023/12/05 03:54:53;;;;;;;0.40;0.30;;;;;;;-0.26;100.00;94967.22;5005753;28;20034;-75
2023/12/05 03:57:42;;;;;;;0.22;0.22;;;;;;;-0.28;100.00;94965.59;5005349;28;20034;-75
2023/12/05 04:00:28;;;;;;;0.22;0.22;;;;;;;-0.31;100.00;94963.44;5009207;28;20029;-75
2023/12/05 04:03:14;;;;;;;0.28;0.28;;;;;;;-0.29;100.00;94968.47;5023793;28;20143;-75
2023/12/05 04:06:00;;;;;;;0.20;0.20;;;;;;;-0.27;100.00;94971.66;5025480;28;20040;-75
2023/12/05 04:08:47;;;;;;;0.20;0.20;;;;;;;-0.31;100.00;94971.31;5023900;28;20082;-75
2023/12/05 04:11:34;;;;;;;0.25;0.25;;;;;;;-0.23;100.00;94974.66;5025459;28;20075;-75
2023/12/05 04:14:19;;;;;;;0.28;0.28;;;;;;;-0.26;100.00;94977.72;5024143;28;20045;-75
2023/12/05 04:17:05;;;;;;;0.28;0.28;;;;;;;-0.19;100.00;94973.22;5023722;28;20044;-76
2023/12/05 04:19:51;;;;;;;0.20;0.20;;;;;;;-0.20;100.00;94977.66;5027354;28;20040;-75
2023/12/05 04:22:37;;;;;;;0.20;0.20;;;;;;;-0.19;100.00;94978.47;5024127;28;20040;-75
2023/12/05 04:25:23;;;;;;;0.22;0.22;;;;;;;-0.12;100.00;94979.22;5023790;28;20044;-76
2023/12/05 04:28:09;;;;;;;0.10;0.10;;;;;;;-0.14;100.00;94982.06;5024024;28;20180;-75
2023/12/05 04:30:54;;;;;;;0.20;0.20;;;;;;;-0.13;100.00;94994.19;5025116;28;20410;-76
2023/12/05 04:33:41;;;;;;;0.85;0.52;;;;;;;-0.07;100.00;94988.06;5028145;28;20044;-76
2023/12/05 04:36:27;;;;;;;0.20;0.20;;;;;;;-0.15;100.00;94985.72;5030300;28;20044;-76
2023/12/05 04:39:13;;;;;;;0.15;0.15;;;;;;;-0.09;100.00;94997.19;5030483;28;20397;-76
2023/12/05 04:41:58;;;;;;;0.28;0.28;;;;;;;-0.12;100.00;94987.91;5029165;28;20048;-76
2023/12/05 04:44:44;;;;;;;0.20;0.20;;;;;;;-0.14;100.00;94983.91;5028443;28;20045;-75
2023/12/05 04:47:30;;;;;;;0.30;0.30;;;;;;;-0.09;100.00;94989.28;5029161;28;20056;-75
2023/12/05 04:50:16;;;;;;;0.28;0.28;;;;;;;-0.11;100.00;94991.34;5028467;28;20053;-76
2023/12/05 04:53:02;;;;;;;1.00;0.68;;;;;;;-0.04;100.00;94994.72;5026565;28;20124;-76
2023/12/05 04:55:48;;;;;;;0.32;0.32;;;;;;;-0.06;100.00;94987.03;5014631;28;20062;-76
2023/12/05 04:58:34;;;;;;;0.30;0.30;;;;;;;-0.04;100.00;94997.34;5031619;28;20375;-76
2023/12/05 05:01:20;;;;;;;0.30;0.30;;;;;;;-0.07;100.00;95000.41;5031117;28;20065;-75
2023/12/05 05:04:06;;;;;;;0.45;0.38;;;;;;;-0.01;100.00;94994.25;5032209;28;20051;-76
2023/12/05 05:06:52;;;;;;;0.30;0.30;;;;;;;0.00;100.00;94998.53;5032649;28;20074;-76
2023/12/05 05:09:40;;;;;;;0.22;0.22;;;;;;;0.07;100.00;94999.22;5030236;28;20041;-77
2023/12/05 05:12:26;;;;;;;0.20;0.20;;;;;;;0.07;100.00;95007.13;5031587;28;20079;-76
2023/12/05 05:15:12;;;;;;;0.30;0.30;;;;;;;0.12;100.00;95006.47;5033509;28;20037;-76
2023/12/05 05:17:58;;;;;;;0.30;0.30;;;;;;;0.14;100.00;94999.16;5030649;28;20041;-76
2023/12/05 05:20:44;;;;;;;0.30;0.30;;;;;;;0.19;100.00;94999.31;5032180;28;20533;-76
2023/12/05 05:23:30;;;;;;;0.30;0.30;;;;;;;0.21;100.00;95005.16;5032455;28;20043;-76
2023/12/05 05:26:15;;;;;;;0.65;0.40;;;;;;;0.26;100.00;95006.13;5033220;28;20067;-76
2023/12/05 05:29:01;;;;;;;1.17;0.73;;;;;;;0.32;100.00;95001.03;5033728;28;20040;-76
2023/12/05 05:31:47;;;;;;;0.20;0.20;;;;;;;0.31;100.00;95004.66;5017463;28;20115;-76
2023/12/05 05:34:33;;;;;;;0.25;0.25;;;;;;;0.32;100.00;94998.38;5033209;28;20087;-76
2023/12/05 05:37:20;;;;;;;0.80;0.50;;;;;;;0.37;100.00;95001.16;5032096;28;20114;-76
2023/12/05 05:40:07;;;;;;;0.22;0.22;;;;;;;0.37;100.00;94998.50;5031534;28;20040;-76
2023/12/05 05:42:53;;;;;;;0.40;0.30;;;;;;;0.37;100.00;94998.50;5031162;28;20067;-77
2023/12/05 05:45:39;;;;;;;0.28;0.28;;;;;;;0.27;100.00;94999.84;5031873;28;20037;-77
2023/12/05 05:48:25;;;;;;;0.38;0.30;;;;;;;0.28;100.00;95000.63;5028458;28;20222;-77
2023/12/05 05:51:11;;;;;;;0.20;0.20;;;;;;;0.23;100.00;95003.94;5029561;28;20044;-77
2023/12/05 05:53:58;;;;;;;0.20;0.20;;;;;;;0.25;100.00;95006.34;5029938;28;20578;-77
2023/12/05 05:56:43;;;;;;;0.30;0.30;;;;;;;0.27;100.00;95007.72;5032923;28;20084;-77
2023/12/05 05:59:29;;;;;;;0.20;0.20;;;;;;;0.31;100.00;95009.91;5030022;28;20549;-77
2023/12/05 06:02:16;;;;;;;0.70;0.50;;;;;;;0.28;100.00;95004.06;5017697;28;20424;-76
2023/12/05 06:05:02;;;;;;;0.60;0.45;;;;;;;0.35;100.00;95016.34;5035572;28;20059;-76
2023/12/05 06:07:47;;;;;;;0.38;0.30;;;;;;;0.38;100.00;95018.53;5023225;28;20516;-76
2023/12/05 06:10:35;;;;;;;1.00;0.55;;;;;;;0.48;100.00;95016.22;5030293;28;20816;-76
2023/12/05 06:13:21;;;;;;;0.70;0.40;;;;;;;0.57;100.00;95009.63;5032285;28;20189;-77
2023/12/05 06:16:07;;;;;;;0.30;0.30;;;;;;;0.66;100.00;95003.03;5029979;28;20869;-76
2023/12/05 06:18:54;;;;;;;0.30;0.30;;;;;;;0.74;100.00;95015.09;5028354;28;20084;-77
2023/12/05 06:21:39;;;;;;;0.20;0.20;;;;;;;0.76;100.00;95018.28;5030026;28;20047;-77
2023/12/05 06:24:26;;;;;;;0.20;0.20;;;;;;;0.72;100.00;95010.03;5028246;28;20045;-77
2023/12/05 06:27:12;;;;;;;0.68;0.40;;;;;;;0.78;100.00;95014.44;5029279;28;20052;-77
2023/12/05 06:29:58;;;;;;;0.52;0.38;;;;;;;0.78;100.00;95014.44;5030330;28;20056;-76
2023/12/05 06:32:44;;;;;;;0.30;0.30;;;;;;;0.78;100.00;95009.16;5028649;28;20047;-77
2023/12/05 06:35:30;;;;;;;0.55;0.40;;;;;;;0.78;100.00;95014.44;5029039;28;20036;-77
2023/12/05 06:38:16;;;;;;;0.30;0.30;;;;;;;0.84;100.00;95017.97;5030675;28;20033;-77
2023/12/05 06:41:02;;;;;;;0.20;0.20;;;;;;;0.89;100.00;95017.31;5015550;28;20057;-77
2023/12/05 06:43:48;;;;;;;0.30;0.30;;;;;;;0.95;100.00;95019.06;5016726;28;20421;-77
2023/12/05 06:46:34;;;;;;;0.25;0.25;;;;;;;0.89;100.00;95017.31;5033159;28;20045;-76
2023/12/05 06:49:20;;;;;;;0.28;0.28;;;;;;;0.89;100.00;95014.69;5031564;28;20037;-77
2023/12/05 06:52:08;;;;;;;0.20;0.20;;;;;;;0.91;100.00;95034.50;5031879;28;20048;-78
2023/12/05 06:54:54;;;;;;;0.25;0.25;;;;;;;0.92;100.00;95025.56;5029150;28;20045;-77
2023/12/05 06:57:40;;;;;;;0.30;0.30;;;;;;;0.97;100.00;95022.28;5028502;28;20036;-78
2023/12/05 07:00:26;;;;;;;0.30;0.25;;;;;;;0.92;100.00;95030.03;5028871;28;20551;-77
2023/12/05 07:03:12;;;;;;;0.30;0.30;;;;;;;0.95;100.00;95037.50;5028744;28;20053;-77
2023/12/05 07:05:57;;;;;;;0.20;0.20;;;;;;;0.82;100.00;95036.66;5013866;28;20040;-78
2023/12/05 07:08:43;;;;;;;0.30;0.30;;;;;;;0.82;100.00;95038.47;5027067;28;20635;-77
2023/12/05 07:11:29;;;;;;;0.25;0.25;;;;;;;0.87;100.00;95043.91;5019518;28;20061;-77
2023/12/05 07:14:15;;;;;;;0.30;0.30;;;;;;;0.84;100.00;95042.50;5030018;28;20593;-77
2023/12/05 07:17:02;;;;;;;0.20;0.20;;;;;;;0.82;100.00;95049.81;5030478;28;21202;-78
2023/12/05 07:19:48;;;;;;;0.30;0.30;;;;;;;0.82;100.00;95051.66;5030420;28;20068;-77
2023/12/05 07:22:36;;;;;;;0.38;0.30;;;;;;;0.79;100.00;95055.53;5031568;28;20040;-77
2023/12/05 07:25:24;;;;;;;0.30;0.30;;;;;;;0.80;100.00;95054.50;5028132;28;20037;-77
2023/12/05 07:28:10;;;;;;;0.30;0.30;;;;;;;0.91;100.00;95054.78;5020498;28;20349;-76
2023/12/05 07:30:57;;;;;;;0.35;0.30;;;;;;;0.86;100.00;95057.25;5028389;28;20045;-78
2023/12/05 07:33:43;;;;;;;0.30;0.30;;;;;;;0.93;100.00;95056.16;5028571;28;20041;-77
2023/12/05 07:36:29;;;;;;;0.30;0.30;;;;;;;1.01;100.00;95065.59;5021898;28;20037;-77
2023/12/05 07:39:15;;;;;;;0.40;0.30;;;;;;;0.97;100.00;95067.88;5027681;28;20083;-76
2023/12/05 07:42:00;;;;;;;0.20;0.20;;;;;;;1.06;100.00;95079.69;5027673;28;20068;-77
2023/12/05 07:44:46;;;;;;;0.20;0.20;;;;;;;1.07;100.00;95078.66;5029967;28;20621;-78
2023/12/05 07:47:32;;;;;;;0.22;0.22;;;;;;;1.03;100.00;95087.25;5030485;28;20441;-77
2023/12/05 07:50:18;;;;;;;0.22;0.22;;;;;;;1.07;100.00;95089.22;5028997;28;20116;-77
2023/12/05 07:53:04;;;;;;;0.30;0.30;;;;;;;1.04;100.00;95094.13;5027392;28;20049;-77
2023/12/05 07:55:50;;;;;;;0.20;0.20;;;;;;;0.99;100.00;95100.06;5030008;28;20094;-77
2023/12/05 07:58:36;;;;;;;0.30;0.30;;;;;;;1.03;100.00;95095.97;5027930;28;20041;-77
2023/12/05 08:01:21;;;;;;;0.35;0.30;;;;;;;1.16;100.00;95096.81;5026134;28;20129;-78
2023/12/05 08:04:08;;;;;;;0.30;0.30;;;;;;;1.06;100.00;95098.16;5028550;28;20055;-76
2023/12/05 08:06:54;;;;;;;0.50;0.40;;;;;;;1.01;100.00;95100.66;5027428;28;20041;-76
2023/12/05 08:09:40;;;;;;;0.30;0.30;;;;;;;1.07;100.00;95105.03;5025575;28;20037;-76
2023/12/05 08:12:26;;;;;;;0.28;0.28;;;;;;;1.16;100.00;95110.78;5030679;28;20052;-77
2023/12/05 08:15:12;;;;;;;0.60;0.40;;;;;;;1.25;100.00;95100.75;5029424;28;20097;-76
2023/12/05 08:17:58;;;;;;;0.57;0.40;;;;;;;1.27;100.00;95107.41;5028042;28;20068;-75
2023/12/05 08:20:44;;;;;;;0.38;0.30;;;;;;;1.30;100.00;95109.59;5028538;28;20116;-76
2023/12/05 08:23:30;;;;;;;0.52;0.40;;;;;;;1.35;100.00;95104.47;5016818;28;20037;-75
2023/12/05 08:26:16;;;;;;;0.45;0.30;;;;;;;1.36;100.00;95115.81;5029509;28;20743;-75
2023/12/05 08:29:02;;;;;;;0.57;0.40;;;;;;;1.46;100.00;95112.63;5028551;28;20075;-77
2023/12/05 08:31:48;;;;;;;0.32;0.30;;;;;;;1.46;100.00;95123.16;5027960;28;20037;-76
2023/12/05 08:34:34;;;;;;;0.45;0.35;;;;;;;1.52;100.00;95117.00;5026507;28;20041;-76
2023/12/05 08:37:20;;;;;;;0.40;0.30;;;;;;;1.41;100.00;95123.88;5027553;28;20029;-76
2023/12/05 08:40:06;;;;;;;0.43;0.30;;;;;;;1.42;100.00;95117.56;5025436;28;20350;-76
2023/12/05 08:42:52;;;;;;;0.35;0.30;;;;;;;1.33;100.00;95122.34;5028270;28;20068;-76
2023/12/05 08:45:38;;;;;;;0.30;0.30;;;;;;;1.37;100.00;95120.06;5028433;28;20073;-76
2023/12/05 08:48:24;;;;;;;0.20;0.20;;;;;;;1.36;100.00;95121.09;5028280;28;20119;-78
2023/12/05 08:51:10;;;;;;;0.20;0.20;;;;;;;1.39;100.00;95129.34;5030362;28;20115;-78
2023/12/05 08:53:56;;;;;;;0.20;0.20;;;;;;;1.44;100.00;95133.94;5027414;28;20040;-76
2023/12/05 08:56:42;;;;;;;0.20;0.20;;;;;;;1.47;100.00;95137.97;5029368;28;20044;-78
2023/12/05 08:59:27;;;;;;;0.20;0.20;;;;;;;1.41;100.00;95137.03;5026475;28;20041;-76
2023/12/05 09:02:13;;;;;;;0.20;0.20;;;;;;;1.43;100.00;95134.19;5028828;28;21000;-77
2023/12/05 09:05:03;;;;;;;0.20;0.20;;;;;;;1.49;100.00;95143.84;5017980;28;20439;-77
2023/12/05 09:07:49;;;;;;;0.20;0.20;;;;;;;1.50;100.00;95143.59;5027373;28;20078;-76
2023/12/05 09:10:35;;;;;;;0.20;0.20;;;;;;;1.53;100.00;95126.53;5027255;28;20080;-77
2023/12/05 09:13:20;;;;;;;0.20;0.20;;;;;;;1.48;100.00;95145.66;5014173;28;20049;-77
2023/12/05 09:16:06;;;;;;;0.20;0.20;;;;;;;1.55;100.00;95138.44;5029171;28;20113;-77
2023/12/05 09:18:52;;;;;;;0.20;0.20;;;;;;;1.51;100.00;95142.56;5029735;28;20119;-76
2023/12/05 09:21:38;;;;;;;0.20;0.20;;;;;;;1.54;100.00;95141.31;5031083;28;20041;-77
2023/12/05 09:24:24;;;;;;;0.20;0.20;;;;;;;1.55;100.00;95150.84;5033799;28;20032;-78
2023/12/05 09:27:10;;;;;;;0.20;0.20;;;;;;;1.51;100.00;95160.22;5033395;28;20036;-77
2023/12/05 09:29:56;;;;;;;0.20;0.20;;;;;;;1.51;100.00;95157.59;5032872;28;20041;-78
2023/12/05 09:32:42;;;;;;;0.20;0.20;;;;;;;1.56;100.00;95158.53;5025234;28;21027;-78
2023/12/05 09:35:28;;;;;;;0.20;0.20;;;;;;;1.64;100.00;95165.34;5029822;28;20071;-78
2023/12/05 09:38:13;;;;;;;0.20;0.20;;;;;;;1.60;100.00;95159.69;5018341;28;20037;-77
2023/12/05 09:41:00;;;;;;;0.20;0.20;;;;;;;1.65;100.00;95164.31;5028086;28;20037;-78
2023/12/05 09:43:48;;;;;;;0.30;0.30;;;;;;;1.72;100.00;95172.94;5027850;28;20045;-78
2023/12/05 09:46:39;;;;;;;0.20;0.20;;;;;;;1.72;100.00;95166.84;5029307;28;20087;-78
2023/12/05 09:49:27;;;;;;;0.28;0.28;;;;;;;1.70;100.00;95166.25;5018818;28;20043;-78
2023/12/05 09:52:14;;;;;;;0.20;0.20;;;;;;;1.82;100.00;95170.53;5030895;28;20041;-77
2023/12/05 09:55:00;;;;;;;0.43;0.40;;;;;;;1.82;100.00;95164.47;5033120;28;20041;-78
2023/12/05 09:57:47;;;;;;;0.20;0.20;;;;;;;1.85;100.00;95164.81;5028211;28;20545;-78
2023/12/05 10:00:33;;;;;;;0.20;0.20;;;;;;;1.94;100.00;95168.72;5030165;28;20041;-78
2023/12/05 10:03:21;;;;;;;0.20;0.20;;;;;;;2.09;100.00;95170.94;5030191;28;20053;-77
2023/12/05 10:06:09;;;;;;;0.20;0.20;;;;;;;2.13;100.00;95166.84;5028988;28;20065;-77
2023/12/05 10:08:56;;;;;;;0.20;0.20;;;;;;;2.23;100.00;95168.91;5020794;28;20040;-77
2023/12/05 10:11:44;;;;;;;0.20;0.20;;;;;;;2.20;100.00;95164.09;5033878;28;20120;-77
2023/12/05 10:14:30;;;;;;;0.20;0.20;;;;;;;2.25;100.00;95166.84;5031882;28;20033;-78
2023/12/05 10:17:16;;;;;;;0.20;0.20;;;;;;;2.44;100.00;95164.94;5023858;28;20040;-78
2023/12/05 10:20:02;;;;;;;0.20;0.20;;;;;;;2.57;100.00;95159.44;5032272;28;20718;-78
2023/12/05 10:22:48;;;;;;;0.20;0.20;;;;;;;2.61;100.00;95163.19;5029999;28;20091;-78
2023/12/05 10:25:34;;;;;;;0.20;0.20;;;;;;;2.70;100.00;95161.03;5031393;28;20051;-79
2023/12/05 10:28:20;;;;;;;0.20;0.20;;;;;;;2.80;100.00;95155.94;5029538;28;20052;-79
2023/12/05 10:31:14;;;;;;;0.20;0.20;;;;;;;2.70;100.00;95161.81;5029903;28;20061;-77
2023/12/05 10:34:07;;;;;;;0.10;0.10;;;;;;;2.75;100.00;95153.22;5029703;28;20490;-76
2023/12/05 10:37:04;;;;;;;0.20;0.20;;;;;;;2.74;100.00;95156.91;5031525;28;20048;-76
2023/12/05 10:39:56;;;;;;;0.20;0.20;;;;;;;2.79;100.00;95151.72;5029944;28;20044;-76
2023/12/05 10:42:42;;;;;;;;;;;;;;;2.88;100.00;95152.97;5028606;28;20095;-76
2023/12/05 10:45:28;;;;;;;0.20;0.20;;;;;;;2.84;100.00;95154.47;5030608;28;20675;-76
2023/12/05 10:48:15;;;;;;;0.20;0.20;;;;;;;2.81;100.00;95149.66;5028160;28;20057;-76
2023/12/05 10:51:01;;;;;;;0.20;0.20;;;;;;;3.07;100.00;95149.16;5017704;28;20049;-76
2023/12/05 10:53:48;;;;;;;0.20;0.20;;;;;;;3.16;100.00;95146.94;5031132;28;20044;-76
2023/12/05 10:56:33;;;;;;;0.20;0.20;;;;;;;3.07;100.00;95143.84;5031021;28;20147;-76
2023/12/05 10:59:21;;;;;;;0.10;0.10;;;;;;;3.08;100.00;95140.19;5030737;28;20037;-76
2023/12/05 11:02:14;;;;;;;0.20;0.20;;;;;;;3.13;100.00;95155.34;5029151;28;20043;-77
2023/12/05 11:05:03;;;;;;;0.20;0.20;;;;;;;3.18;100.00;95138.78;5010483;28;20041;-79
2023/12/05 11:07:49;;;;;;;0.10;0.10;;;;;;;2.95;100.00;95147.56;5014377;28;20041;-77
2023/12/05 11:10:35;;;;;;;0.20;0.20;;;;;;;2.90;100.00;95155.38;5030515;28;20812;-77
2023/12/05 11:13:21;;;;;;;0.20;0.20;;;;;;;2.71;100.00;95149.41;5030737;28;20055;-77
2023/12/05 11:16:17;;;;;;;0.20;0.20;;;;;;;2.77;100.00;95148.50;5027985;28;20409;-79
2023/12/05 11:19:27;;;;;;;0.20;0.20;;;;;;;2.85;100.00;95153.44;5026193;28;20064;-79
2023/12/05 11:23:10;;;;;;;0.20;0.20;;;;;;;2.83;100.00;95152.06;5001169;28;20521;-78
2023/12/05 11:26:26;;;;;;;0.20;0.20;;;;;;;2.79;100.00;95160.44;4953836;28;20042;-78
2023/12/05 11:29:27;;;;;;;0.20;0.20;;;;;;;2.79;100.00;95149.88;4957990;28;20039;-77
2023/12/05 11:32:19;;;;;;;0.20;0.20;;;;;;;2.83;100.00;95150.22;5027324;28;20045;-78
2023/12/05 11:35:20;;;;;;;0.20;0.20;;;;;;;2.96;100.00;95149.97;5029331;28;20064;-77
2023/12/05 11:38:11;;;;;;;0.30;0.30;;;;;;;3.19;100.00;95148.31;5030556;28;20033;-78
2023/12/05 11:41:24;;;;;;;0.20;0.20;;;;;;;3.08;100.00;95147.31;5029189;28;20041;-79
2023/12/05 11:44:13;;;;;;;0.20;0.20;;;;;;;3.10;100.00;95153.16;5030312;28;20037;-78
2023/12/05 11:47:03;;;;;;;0.20;0.20;;;;;;;3.26;100.00;95155.06;5029362;28;20051;-79
2023/12/05 11:49:54;;;;;;;0.20;0.20;;;;;;;3.04;100.00;95152.25;5029528;28;20041;-78
2023/12/05 11:52:41;;;;;;;0.10;0.10;;;;;;;3.04;100.00;95154.09;5014895;28;20037;-78
2023/12/05 11:55:30;;;;;;;0.17;0.17;;;;;;;3.19;100.00;95153.59;5018435;28;20037;-78
2023/12/05 11:58:27;;;;;;;0.20;0.20;;;;;;;3.10;100.00;95155.78;5024871;28;20049;-78
2023/12/05 12:01:14;;;;;;;0.20;0.20;;;;;;;3.07;100.00;95153.63;5026370;28;20049;-79
2023/12/05 12:04:00;;;;;;;0.20;0.20;;;;;;;3.10;100.00;95160.28;5025950;28;20099;-78
2023/12/05 12:06:47;;;;;;;0.20;0.20;;;;;;;2.95;100.00;95152.84;5029223;28;20463;-78
2023/12/05 12:09:38;;;;;;;0.20;0.20;;;;;;;3.11;100.00;95153.97;5025341;28;20037;-78
2023/12/05 12:12:24;;;;;;;0.20;0.20;;;;;;;2.96;100.00;95154.47;5025897;28;20381;-77
2023/12/05 12:15:11;;;;;;;0.20;0.20;;;;;;;3.00;100.00;95156.41;5028051;28;20047;-77
2023/12/05 12:17:59;;;;;;;0.20;0.20;;;;;;;3.10;100.00;95155.00;5026491;28;20107;-79
2023/12/05 12:20:50;;;;;;;0.20;0.20;;;;;;;3.09;100.00;95156.84;5027782;28;20033;-77
2023/12/05 12:23:37;;;;;;;0.20;0.20;;;;;;;3.13;100.00;95144.78;5024682;28;20130;-78
2023/12/05 12:26:23;;;;;;;0.20;0.20;;;;;;;3.27;100.00;95150.63;5018054;28;20288;-78
2023/12/05 12:29:09;;;;;;;0.20;0.20;;;;;;;3.26;100.00;95147.13;5015268;28;20033;-77
2023/12/05 12:32:10;;;;;;;0.20;0.20;;;;;;;3.39;100.00;95154.00;5026733;28;20033;-77
2023/12/05 12:34:59;;;;;;;0.20;0.20;;;;;;;3.48;100.00;95159.72;5029040;28;20242;-78
2023/12/05 12:37:45;;;;;;;0.20;0.20;;;;;;;3.57;100.00;95158.31;5026702;28;20120;-78
2023/12/05 12:40:33;;;;;;;0.20;0.20;;;;;;;3.48;100.00;95160.53;5027586;28;20029;-77
2023/12/05 12:43:19;;;;;;;0.22;0.22;;;;;;;3.31;100.00;95163.13;5027341;28;20045;-77
2023/12/05 12:46:05;;;;;;;0.20;0.20;;;;;;;3.22;100.00;95159.22;5027045;28;20045;-77
2023/12/05 12:48:51;;;;;;;0.28;0.28;;;;;;;3.40;100.00;95158.25;5027534;28;20045;-77
2023/12/05 12:51:40;;;;;;;0.20;0.20;;;;;;;3.30;100.00;95155.41;4998875;28;20092;-77
2023/12/05 12:54:27;;;;;;;0.20;0.20;;;;;;;3.40;100.00;95155.59;5030530;28;20064;-78
2023/12/05 12:57:13;;;;;;;0.20;0.20;;;;;;;3.44;100.00;95156.75;5031906;28;20037;-77
2023/12/05 13:00:01;;;;;;;0.10;0.10;;;;;;;3.28;100.00;95160.94;5032460;28;20029;-77
2023/12/05 13:02:53;;;;;;;0.22;0.22;;;;;;;3.35;100.00;95161.63;5030914;28;20076;-78
2023/12/05 13:05:40;;;;;;;0.10;0.10;;;;;;;3.20;100.00;95168.44;5032274;28;20410;-77